createdAt,value
2018-07-01T00:01:30.233Z,1.30
2018-07-01T00:04:06.379Z,1.37
2018-07-01T00:06:43.580Z,1.70
2018-07-01T00:09:20.103Z,1.73
2018-07-01T00:11:57.256Z,1.70
2018-07-01T00:14:34.052Z,1.50
2018-07-01T00:17:10.930Z,1.20
2018-07-01T00:19:47.660Z,1.40
2018-07-01T00:22:23.653Z,1.53
2018-07-01T00:25:01.392Z,1.40
2018-07-01T00:27:37.958Z,1.60
2018-07-01T00:30:14.940Z,1.93
2018-07-01T00:32:52.032Z,1.90
2018-07-01T00:35:28.929Z,1.50
2018-07-01T00:38:05.547Z,1.40
2018-07-01T00:40:41.780Z,1.50
2018-07-01T00:43:19.041Z,1.10
2018-07-01T00:45:57.264Z,1.33
2018-07-01T00:48:33.711Z,1.13
2018-07-01T00:51:10.983Z,1.60
2018-07-01T00:53:47.672Z,1.20
2018-07-01T00:56:23.981Z,1.37
2018-07-01T00:59:03.237Z,1.10
2018-07-01T01:01:39.444Z,1.30
2018-07-01T01:04:16.752Z,1.30
2018-07-01T01:06:54.214Z,1.30
2018-07-01T01:09:30.577Z,1.27
2018-07-01T01:12:08.829Z,1.13
2018-07-01T01:14:45.796Z,1.20
2018-07-01T01:17:23.205Z,1.40
2018-07-01T01:20:01.264Z,1.10
2018-07-01T01:22:38.580Z,1.20
2018-07-01T01:25:15.421Z,1.60
2018-07-01T01:27:51.641Z,1.50
2018-07-01T01:30:28.929Z,1.22
2018-07-01T01:33:06.323Z,1.42
2018-07-01T01:35:43.354Z,1.35
2018-07-01T01:38:22.404Z,1.65
2018-07-01T01:41:04.932Z,1.50
2018-07-01T01:43:46.245Z,1.33
2018-07-01T01:46:28.103Z,1.10
2018-07-01T01:49:09.614Z,1.12
2018-07-01T01:51:49.727Z,1.20
2018-07-01T01:54:39.316Z,1.00
2018-07-01T01:57:19.568Z,1.50
2018-07-01T02:00:05.475Z,1.30
2018-07-01T02:02:47.969Z,1.40
2018-07-01T02:05:33.087Z,1.30
2018-07-01T02:08:15.543Z,1.30
2018-07-01T02:10:54.175Z,1.00
2018-07-01T02:13:33.721Z,1.20
2018-07-01T02:16:14.878Z,1.17
2018-07-01T02:18:51.328Z,1.30
2018-07-01T02:21:27.950Z,1.32
2018-07-01T02:24:14.012Z,1.37
2018-07-01T02:26:51.600Z,1.12
2018-07-01T02:29:29.060Z,1.55
2018-07-01T02:32:07.318Z,1.30
2018-07-01T02:34:44.406Z,1.22
2018-07-01T02:37:20.583Z,1.42
2018-07-01T02:39:57.793Z,1.40
2018-07-01T02:42:33.952Z,1.10
2018-07-01T02:45:10.660Z,1.40
2018-07-01T02:47:46.953Z,1.30
2018-07-01T02:50:24.220Z,1.25
2018-07-01T02:53:01.981Z,1.60
2018-07-01T02:55:39.214Z,1.45
2018-07-01T02:58:17.597Z,1.30
2018-07-01T03:00:54.371Z,1.40
2018-07-01T03:03:32.546Z,1.12
2018-07-01T03:06:10.358Z,1.45
2018-07-01T03:08:48.458Z,1.27
2018-07-01T03:11:25.571Z,1.30
2018-07-01T03:14:03.158Z,1.37
2018-07-01T03:16:40.786Z,1.70
2018-07-01T03:19:17.952Z,1.42
2018-07-01T03:21:54.550Z,1.30
2018-07-01T03:24:31.731Z,1.40
2018-07-01T03:27:08.339Z,1.50
2018-07-01T03:29:45.849Z,1.37
2018-07-01T03:32:22.664Z,1.25
2018-07-01T03:34:59.854Z,1.62
2018-07-01T03:37:37.885Z,1.40
2018-07-01T03:40:15.425Z,1.37
2018-07-01T03:42:51.613Z,1.60
2018-07-01T03:45:27.880Z,1.40
2018-07-01T03:48:04.562Z,1.60
2018-07-01T03:50:41.616Z,1.65
2018-07-01T03:53:17.750Z,1.60
2018-07-01T03:55:53.850Z,1.23
2018-07-01T03:58:30.605Z,1.30
2018-07-01T04:01:09.228Z,1.30
2018-07-01T04:03:46.139Z,1.50
2018-07-01T04:06:22.979Z,1.37
2018-07-01T04:08:59.046Z,1.70
2018-07-01T04:11:36.938Z,1.40
2018-07-01T04:14:12.651Z,1.27
2018-07-01T04:16:51.924Z,1.50
2018-07-01T04:19:36.200Z,1.60
2018-07-01T04:22:12.631Z,1.75
2018-07-01T04:24:50.163Z,1.45
2018-07-01T04:27:27.584Z,1.90
2018-07-01T04:30:06.947Z,1.60
2018-07-01T04:32:44.604Z,1.77
2018-07-01T04:35:21.884Z,1.98
2018-07-01T04:37:59.408Z,1.50
2018-07-01T04:40:37.208Z,1.77
2018-07-01T04:43:14.372Z,1.87
2018-07-01T04:45:51.324Z,1.60
2018-07-01T04:48:29.515Z,1.77
2018-07-01T04:51:06.909Z,1.50
2018-07-01T04:53:44.698Z,2.05
2018-07-01T04:56:21.806Z,1.60
2018-07-01T04:59:00.731Z,1.50
2018-07-01T05:01:38.837Z,1.60
2018-07-01T05:04:16.066Z,1.60
2018-07-01T05:06:53.190Z,1.50
2018-07-01T05:09:32.820Z,1.70
2018-07-01T05:12:09.342Z,1.67
2018-07-01T05:14:46.706Z,1.45
2018-07-01T05:17:23.650Z,1.70
2018-07-01T05:20:00.328Z,1.53
2018-07-01T05:22:36.842Z,1.67
2018-07-01T05:25:14.209Z,1.40
2018-07-01T05:27:51.241Z,1.50
2018-07-01T05:30:27.523Z,1.33
2018-07-01T05:33:04.101Z,1.50
2018-07-01T05:35:40.161Z,1.50
2018-07-01T05:38:18.069Z,1.50
2018-07-01T05:40:56.283Z,1.60
2018-07-01T05:43:34.039Z,1.60
2018-07-01T05:46:11.586Z,1.50
2018-07-01T05:48:49.226Z,1.53
2018-07-01T05:51:26.398Z,1.37
2018-07-01T05:54:03.829Z,1.10
2018-07-01T05:56:39.624Z,1.17
2018-07-01T05:59:16.881Z,1.17
2018-07-01T06:01:56.045Z,1.40
2018-07-01T06:04:34.495Z,1.40
2018-07-01T06:07:11.860Z,1.07
2018-07-01T06:09:49.742Z,1.27
2018-07-01T06:12:27.197Z,1.33
2018-07-01T06:15:04.424Z,1.10
2018-07-01T06:17:42.411Z,1.20
2018-07-01T06:20:19.788Z,0.80
2018-07-01T06:22:56.863Z,1.27
2018-07-01T06:25:33.377Z,1.00
2018-07-01T06:28:10.553Z,1.40
2018-07-01T06:30:48.901Z,1.27
2018-07-01T06:33:26.118Z,1.03
2018-07-01T06:36:02.287Z,1.20
2018-07-01T06:38:38.920Z,1.43
2018-07-01T06:41:15.612Z,1.20
2018-07-01T06:43:53.490Z,1.20
2018-07-01T06:46:31.034Z,0.90
2018-07-01T06:49:07.732Z,0.90
2018-07-01T06:51:45.891Z,1.30
2018-07-01T06:54:22.204Z,1.00
2018-07-01T06:56:59.866Z,1.10
2018-07-01T06:59:36.917Z,0.80
2018-07-01T07:02:13.577Z,0.80
2018-07-01T07:04:52.000Z,0.80
2018-07-01T07:07:29.700Z,0.60
2018-07-01T07:10:07.776Z,0.70
2018-07-01T07:12:44.852Z,0.60
2018-07-01T07:15:22.829Z,0.50
2018-07-01T07:17:59.120Z,0.50
2018-07-01T07:20:35.511Z,0.40
2018-07-01T07:23:12.878Z,0.50
2018-07-01T07:25:50.277Z,0.40
2018-07-01T07:28:27.135Z,0.57
2018-07-01T07:31:04.988Z,0.53
2018-07-01T07:33:42.189Z,0.63
2018-07-01T07:36:18.964Z,0.60
2018-07-01T07:38:56.941Z,0.47
2018-07-01T07:41:35.020Z,0.40
2018-07-01T07:44:11.284Z,0.43
2018-07-01T07:46:48.552Z,0.60
2018-07-01T07:49:24.904Z,0.50
2018-07-01T07:52:01.609Z,0.40
2018-07-01T07:54:39.794Z,0.40
2018-07-01T07:57:17.432Z,0.40
2018-07-01T07:59:54.147Z,0.30
2018-07-01T08:02:31.296Z,0.40
2018-07-01T08:05:09.233Z,0.40
2018-07-01T08:07:46.813Z,0.40
2018-07-01T08:10:23.933Z,0.40
2018-07-01T08:13:01.213Z,0.33
2018-07-01T08:15:38.690Z,0.43
2018-07-01T08:18:16.122Z,0.60
2018-07-01T08:20:54.648Z,0.40
2018-07-01T08:23:31.646Z,0.40
2018-07-01T08:26:08.970Z,0.80
2018-07-01T08:28:46.539Z,0.50
2018-07-01T08:31:24.633Z,0.80
2018-07-01T08:34:00.964Z,0.80
2018-07-01T08:36:39.074Z,0.40
2018-07-01T08:39:15.518Z,0.50
2018-07-01T08:42:32.240Z,0.43
2018-07-01T08:45:10.298Z,0.80
2018-07-01T08:47:53.776Z,0.67
2018-07-01T08:50:32.273Z,0.50
2018-07-01T08:53:09.597Z,0.70
2018-07-01T08:55:46.435Z,0.80
2018-07-01T08:58:25.816Z,0.70
2018-07-01T09:01:02.838Z,0.80
2018-07-01T09:03:40.786Z,0.63
2018-07-01T09:06:17.668Z,0.50
2018-07-01T09:08:54.059Z,0.50
2018-07-01T09:11:31.779Z,0.60
2018-07-01T09:14:10.159Z,0.60
2018-07-01T09:16:47.196Z,0.50
2018-07-01T09:19:25.681Z,0.30
2018-07-01T09:22:02.907Z,0.67
2018-07-01T09:24:41.717Z,0.50
2018-07-01T09:27:19.487Z,0.70
2018-07-01T09:30:03.850Z,0.70
2018-07-01T09:32:40.086Z,0.50
2018-07-01T09:35:18.222Z,0.40
2018-07-01T09:37:55.579Z,0.50
2018-07-01T09:40:33.502Z,0.30
2018-07-01T09:43:10.863Z,0.60
2018-07-01T09:45:47.471Z,0.53
2018-07-01T09:48:23.868Z,0.60
2018-07-01T09:51:02.973Z,0.40
2018-07-01T09:53:40.747Z,0.80
2018-07-01T09:56:19.270Z,0.30
2018-07-01T09:58:57.048Z,0.57
2018-07-01T10:01:35.117Z,0.50
2018-07-01T10:04:13.550Z,0.50
2018-07-01T10:06:53.357Z,0.53
2018-07-01T10:09:31.345Z,1.10
2018-07-01T10:12:08.980Z,0.50
2018-07-01T10:14:46.831Z,0.37
2018-07-01T10:17:24.396Z,0.60
2018-07-01T10:20:03.154Z,0.60
2018-07-01T10:22:39.459Z,0.70
2018-07-01T10:25:16.157Z,0.60
2018-07-01T10:27:54.141Z,0.57
2018-07-01T10:30:32.077Z,0.60
2018-07-01T10:33:09.181Z,0.77
2018-07-01T10:35:46.622Z,0.80
2018-07-01T10:38:23.764Z,0.60
2018-07-01T10:41:00.284Z,1.10
2018-07-01T10:43:37.199Z,0.80
2018-07-01T10:46:14.638Z,0.80
2018-07-01T10:48:53.030Z,0.50
2018-07-01T10:51:30.175Z,0.60
2018-07-01T10:54:08.373Z,0.40
2018-07-01T10:56:47.034Z,0.50
2018-07-01T10:59:24.678Z,0.50
2018-07-01T11:02:02.704Z,0.50
2018-07-01T11:04:40.863Z,0.60
2018-07-01T11:07:18.384Z,0.63
2018-07-01T11:09:55.728Z,0.40
2018-07-01T11:12:33.317Z,0.50
2018-07-01T11:15:11.810Z,0.67
2018-07-01T11:17:48.669Z,0.60
2018-07-01T11:20:25.395Z,0.50
2018-07-01T11:23:02.611Z,0.43
2018-07-01T11:25:38.624Z,0.40
2018-07-01T11:28:15.557Z,0.60
2018-07-01T11:30:52.618Z,0.90
2018-07-01T11:33:29.556Z,0.67
2018-07-01T11:36:06.933Z,0.40
2018-07-01T11:38:43.389Z,0.50
2018-07-01T11:41:20.606Z,0.40
2018-07-01T11:43:57.330Z,0.57
2018-07-01T11:46:35.059Z,0.50
2018-07-01T11:49:11.973Z,0.50
2018-07-01T11:51:48.949Z,0.43
2018-07-01T11:54:27.192Z,0.50
2018-07-01T11:57:04.210Z,0.30
2018-07-01T11:59:41.539Z,1.50
2018-07-01T12:02:20.536Z,0.40
2018-07-01T12:05:16.211Z,0.20
2018-07-01T12:07:36.089Z,0.40
2018-07-01T12:10:11.884Z,0.30
2018-07-01T12:12:47.797Z,0.20
2018-07-01T12:15:25.332Z,0.50
2018-07-01T12:18:01.996Z,0.50
2018-07-01T12:20:40.137Z,0.70
2018-07-01T12:23:17.020Z,0.50
2018-07-01T12:25:53.924Z,0.60
2018-07-01T12:28:30.569Z,0.40
2018-07-01T12:31:07.324Z,0.43
2018-07-01T12:33:44.997Z,0.50
2018-07-01T12:36:23.726Z,0.50
2018-07-01T12:39:00.400Z,0.50
2018-07-01T12:41:39.232Z,0.47
2018-07-01T12:44:17.525Z,0.30
2018-07-01T12:46:54.645Z,0.40
2018-07-01T12:49:31.364Z,0.50
2018-07-01T12:52:09.399Z,0.40
2018-07-01T12:54:46.941Z,0.30
2018-07-01T12:57:24.945Z,0.40
2018-07-01T13:00:01.173Z,0.20
2018-07-01T13:02:39.702Z,0.30
2018-07-01T13:05:19.010Z,0.50
2018-07-01T13:07:56.444Z,0.40
2018-07-01T13:10:34.162Z,0.20
2018-07-01T13:13:11.435Z,0.30
2018-07-01T13:15:47.948Z,0.30
2018-07-01T13:18:26.594Z,0.30
2018-07-01T13:21:04.568Z,0.23
2018-07-01T13:23:42.841Z,0.50
2018-07-01T13:26:20.399Z,0.50
2018-07-01T13:28:58.720Z,0.30
2018-07-01T13:31:35.313Z,0.50
2018-07-01T13:34:13.072Z,0.43
2018-07-01T13:36:53.099Z,0.40
2018-07-01T13:39:30.676Z,0.43
2018-07-01T13:42:09.355Z,0.20
2018-07-01T13:44:50.029Z,0.40
2018-07-01T13:47:28.268Z,0.40
2018-07-01T13:50:06.195Z,0.40
2018-07-01T13:52:42.695Z,0.43
2018-07-01T13:55:19.109Z,0.43
2018-07-01T13:57:55.399Z,0.77
2018-07-01T14:00:31.553Z,0.50
2018-07-01T14:03:08.657Z,0.40
2018-07-01T14:05:47.971Z,0.40
2018-07-01T14:08:25.001Z,0.50
2018-07-01T14:11:01.576Z,0.67
2018-07-01T14:13:39.856Z,0.50
2018-07-01T14:16:19.346Z,0.50
2018-07-01T14:18:56.380Z,0.40
2018-07-01T14:21:33.228Z,0.70
2018-07-01T14:24:12.055Z,0.50
2018-07-01T14:26:51.077Z,0.40
2018-07-01T14:29:28.288Z,0.30
2018-07-01T14:32:06.184Z,0.30
2018-07-01T14:34:43.213Z,0.50
2018-07-01T14:37:21.001Z,0.30
2018-07-01T14:39:58.483Z,0.40
2018-07-01T14:42:36.271Z,0.40
2018-07-01T14:45:16.540Z,0.60
2018-07-01T14:47:54.535Z,0.60
2018-07-01T14:50:31.804Z,0.50
2018-07-01T14:53:09.844Z,0.30
2018-07-01T14:55:47.472Z,0.40
2018-07-01T14:58:25.200Z,0.60
2018-07-01T15:01:03.027Z,0.50
2018-07-01T15:03:40.185Z,0.50
2018-07-01T15:06:16.635Z,0.43
2018-07-01T15:08:54.010Z,0.27
2018-07-01T15:11:30.714Z,0.50
2018-07-01T15:14:07.080Z,0.43
2018-07-01T15:16:45.106Z,0.40
2018-07-01T15:19:22.205Z,0.50
2018-07-01T15:21:58.242Z,0.63
2018-07-01T15:24:37.318Z,0.30
2018-07-01T15:27:14.994Z,0.40
2018-07-01T15:29:53.389Z,0.60
2018-07-01T15:32:30.710Z,0.80
2018-07-01T15:35:07.252Z,0.67
2018-07-01T15:37:45.379Z,0.57
2018-07-01T15:40:22.549Z,0.83
2018-07-01T15:42:59.819Z,0.63
2018-07-01T15:45:37.902Z,0.60
2018-07-01T15:48:15.848Z,0.40
2018-07-01T15:50:53.323Z,0.40
2018-07-01T15:53:30.251Z,0.70
2018-07-01T15:56:07.616Z,0.50
2018-07-01T15:58:44.648Z,0.30
2018-07-01T16:01:21.453Z,0.53
2018-07-01T16:03:58.640Z,0.90
2018-07-01T16:06:36.613Z,0.80
2018-07-01T16:09:13.769Z,1.20
2018-07-01T16:11:52.303Z,0.60
2018-07-01T16:14:29.285Z,0.80
2018-07-01T16:17:06.159Z,0.77
2018-07-01T16:19:42.403Z,0.70
2018-07-01T16:22:20.189Z,5.27
2018-07-01T16:25:01.852Z,1.70
2018-07-01T16:27:42.030Z,1.47
2018-07-01T16:30:19.875Z,0.60
2018-07-01T16:32:58.791Z,1.30
2018-07-01T16:35:36.445Z,1.87
2018-07-01T16:38:14.443Z,2.40
2018-07-01T16:40:51.600Z,0.60
2018-07-01T16:43:29.228Z,1.00
2018-07-01T16:46:06.617Z,0.70
2018-07-01T16:48:43.118Z,0.70
2018-07-01T16:51:20.884Z,1.33
2018-07-01T16:53:58.634Z,0.87
2018-07-01T16:56:36.220Z,0.90
2018-07-01T16:59:12.983Z,0.90
2018-07-01T17:01:49.301Z,0.97
2018-07-01T17:04:25.407Z,1.00
2018-07-01T17:07:03.159Z,0.60
2018-07-01T17:09:41.237Z,0.40
2018-07-01T17:12:19.323Z,0.40
2018-07-01T17:14:56.165Z,0.60
2018-07-01T17:17:32.968Z,0.67
2018-07-01T17:20:10.949Z,1.40
2018-07-01T17:22:47.191Z,0.40
2018-07-01T17:25:24.817Z,0.60
2018-07-01T17:28:02.385Z,0.40
2018-07-01T17:30:39.432Z,0.70
2018-07-01T17:33:23.447Z,1.30
2018-07-01T17:36:01.149Z,0.60
2018-07-01T17:38:37.849Z,0.80
2018-07-01T17:41:15.969Z,0.60
2018-07-01T17:43:53.624Z,0.67
2018-07-01T17:46:31.770Z,0.70
2018-07-01T17:49:09.774Z,1.03
2018-07-01T17:51:51.778Z,2.30
2018-07-01T17:54:32.657Z,1.23
2018-07-01T17:57:10.965Z,1.17
2018-07-01T17:59:48.428Z,0.90
2018-07-01T18:02:26.741Z,0.77
2018-07-01T18:05:04.262Z,1.30
2018-07-01T18:07:40.842Z,0.60
2018-07-01T18:10:18.007Z,0.73
2018-07-01T18:12:55.223Z,1.07
2018-07-01T18:15:34.929Z,1.90
2018-07-01T18:18:11.279Z,1.73
2018-07-01T18:20:53.270Z,0.60
2018-07-01T18:24:02.958Z,0.50
2018-07-01T18:26:11.925Z,0.90
2018-07-01T18:29:02.567Z,1.23
2018-07-01T18:31:32.751Z,2.37
2018-07-01T18:34:10.860Z,1.50
2018-07-01T18:36:47.573Z,0.70
2018-07-01T18:39:24.321Z,0.53
2018-07-01T18:42:03.166Z,1.60
2018-07-01T18:44:40.277Z,0.70
2018-07-01T18:47:19.098Z,1.50
2018-07-01T18:50:00.416Z,0.83
2018-07-01T18:52:36.840Z,0.63
2018-07-01T18:55:15.153Z,0.80
2018-07-01T18:57:55.903Z,0.90
2018-07-01T19:00:36.267Z,0.77
2018-07-01T19:03:17.965Z,0.93
2018-07-01T19:05:57.660Z,0.80
2018-07-01T19:08:37.012Z,0.60
2018-07-01T19:11:16.245Z,1.20
2018-07-01T19:13:53.601Z,1.87
2018-07-01T19:16:33.138Z,1.40
2018-07-01T19:19:11.755Z,1.17
2018-07-01T19:21:48.180Z,0.80
2018-07-01T19:24:25.208Z,0.70
2018-07-01T19:27:03.297Z,0.90
2018-07-01T19:29:39.939Z,0.97
2018-07-01T19:32:19.081Z,1.07
2018-07-01T19:34:55.924Z,1.10
2018-07-01T19:37:32.893Z,1.30
2018-07-01T19:40:12.955Z,1.00
2018-07-01T19:42:50.913Z,1.00
2018-07-01T19:45:28.915Z,2.53
2018-07-01T19:48:07.137Z,2.87
2018-07-01T19:50:44.144Z,2.30
2018-07-01T19:56:08.701Z,2.13
2018-07-01T19:58:50.761Z,1.13
2018-07-01T20:01:27.756Z,1.40
2018-07-01T20:04:04.046Z,2.00
2018-07-01T20:06:40.489Z,1.60
2018-07-01T20:09:18.164Z,1.70
2018-07-01T20:11:55.710Z,2.30
2018-07-01T20:14:32.442Z,2.37
2018-07-01T20:17:08.860Z,3.00
2018-07-01T20:19:47.889Z,3.37
2018-07-01T20:22:24.213Z,3.03
2018-07-01T20:25:02.324Z,4.70
2018-07-01T20:27:43.307Z,4.10
2018-07-01T20:30:20.846Z,3.80
2018-07-01T20:32:59.941Z,3.50
2018-07-01T20:35:37.417Z,3.37
2018-07-01T20:38:15.377Z,3.50
2018-07-01T20:40:51.404Z,3.40
2018-07-01T20:43:27.902Z,2.97
2018-07-01T20:46:07.225Z,2.03
2018-07-01T20:48:44.973Z,2.40
2018-07-01T20:51:23.393Z,1.93
2018-07-01T20:54:03.132Z,1.67
2018-07-01T20:56:39.912Z,1.97
2018-07-01T20:59:15.963Z,1.63
2018-07-01T21:01:53.896Z,2.50
2018-07-01T21:04:30.400Z,2.50
2018-07-01T21:07:07.437Z,2.80
2018-07-01T21:09:45.787Z,2.70
2018-07-01T21:12:21.885Z,3.30
2018-07-01T21:15:00.076Z,2.87
2018-07-01T21:17:37.338Z,2.63
2018-07-01T21:22:52.827Z,1.70
2018-07-01T21:25:31.218Z,2.20
2018-07-01T21:28:08.437Z,2.63
2018-07-01T21:30:44.351Z,2.10
2018-07-01T21:33:21.412Z,2.83
2018-07-01T21:35:57.617Z,2.70
2018-07-01T21:38:34.909Z,3.10
2018-07-01T21:41:13.861Z,3.80
2018-07-01T21:43:51.104Z,3.77
2018-07-01T21:46:28.055Z,2.10
2018-07-01T21:49:07.247Z,1.87
2018-07-01T21:51:43.629Z,1.60
2018-07-01T21:54:21.491Z,1.43
2018-07-01T21:56:58.983Z,1.87
2018-07-01T21:59:36.124Z,1.40
2018-07-01T22:02:13.494Z,1.73
2018-07-01T22:04:49.857Z,1.50
2018-07-01T22:07:27.785Z,1.60
2018-07-01T22:10:03.997Z,1.77
2018-07-01T22:12:52.538Z,1.70
2018-07-01T22:15:46.069Z,1.70
2018-07-01T22:18:22.959Z,1.53
2018-07-01T22:20:59.285Z,2.00
2018-07-01T22:23:36.568Z,1.80
2018-07-01T22:26:14.747Z,1.87
2018-07-01T22:28:52.143Z,2.00
2018-07-01T22:31:30.400Z,2.00
2018-07-01T22:34:07.557Z,1.80
2018-07-01T22:36:45.648Z,1.63
2018-07-01T22:39:24.720Z,2.03
2018-07-01T22:42:02.604Z,1.70
2018-07-01T22:47:21.595Z,1.60
2018-07-01T22:49:59.769Z,1.30
2018-07-01T22:52:36.100Z,1.60
2018-07-01T22:55:14.236Z,1.90
2018-07-01T22:57:52.364Z,1.50
2018-07-01T23:00:29.093Z,1.50
2018-07-01T23:03:16.175Z,1.53
2018-07-01T23:05:53.486Z,1.70
2018-07-01T23:08:30.315Z,2.60
2018-07-01T23:11:07.457Z,1.80
2018-07-01T23:13:44.739Z,1.67
2018-07-01T23:16:21.419Z,2.02
2018-07-01T23:18:59.477Z,1.80
2018-07-01T23:21:37.158Z,1.60
2018-07-01T23:24:15.056Z,2.07
2018-07-01T23:26:54.076Z,1.95
2018-07-01T23:29:32.856Z,1.82
2018-07-01T23:32:09.787Z,2.72
2018-07-01T23:34:47.848Z,2.60
2018-07-01T23:37:25.351Z,2.20
2018-07-01T23:40:03.038Z,2.05
2018-07-01T23:42:42.243Z,1.77
2018-07-01T23:45:19.491Z,2.17
2018-07-01T23:47:55.838Z,1.95
2018-07-01T23:50:32.817Z,2.25
2018-07-01T23:53:11.662Z,2.15
2018-07-01T23:55:48.085Z,1.77
2018-07-01T23:58:26.487Z,2.05
